Time;durP1;ratioP1;P1;durP2;ratioP2;P2;SDS_P1;SDS_P2;PMS_P1;PMS_P2;Temp;Humidity;BMP_temperature;BMP_pressure;BME280_temperature;BME280_humidity;BME280_pressure;Samples;Min_cycle;Max_cycle;Signal;HPM_P1;HPM_P2
2022/08/11 00:02:47;;;;;;;9.95;4.57;;;;;;;20.87;73.72;95000.78;5030318;28;20176;-75
2022/08/11 00:05:18;;;;;;;4.45;3.78;;;;;;;20.82;73.42;95000.81;5030473;28;20633;-75
2022/08/11 00:07:46;;;;;;;7.82;3.78;;;;;;;20.82;73.77;95006.97;5030249;28;20184;-75
2022/08/11 00:10:15;;;;;;;5.65;4.63;;;;;;;20.71;73.50;94997.34;5030139;28;20176;-75
2022/08/11 00:12:42;;;;;;;4.80;3.88;;;;;;;20.78;73.87;95005.09;5030325;28;20183;-75
2022/08/11 00:15:09;;;;;;;5.97;4.93;;;;;;;20.73;74.10;95005.13;5030273;28;20660;-75
2022/08/11 00:17:35;;;;;;;6.00;5.35;;;;;;;20.74;74.22;95001.38;5030043;28;20176;-75
2022/08/11 00:20:09;;;;;;;10.82;7.50;;;;;;;20.69;74.29;95005.66;5030162;28;20207;-75
2022/08/11 00:22:38;;;;;;;13.10;10.40;;;;;;;20.68;74.51;94998.69;5030351;28;20191;-75
2022/08/11 00:25:10;;;;;;;10.98;6.97;;;;;;;20.67;74.96;95001.63;5011754;28;20628;-75
2022/08/11 00:27:38;;;;;;;12.13;7.32;;;;;;;20.67;75.13;95004.31;4992799;28;20560;-75
2022/08/11 00:30:05;;;;;;;5.80;5.05;;;;;;;20.63;75.00;94993.34;5010513;28;20173;-75
2022/08/11 00:32:32;;;;;;;6.03;5.32;;;;;;;20.59;75.10;94996.81;5010536;28;20180;-75
2022/08/11 00:34:59;;;;;;;5.50;5.00;;;;;;;20.57;75.17;94996.31;5010228;28;20231;-75
2022/08/11 00:37:26;;;;;;;6.07;4.88;;;;;;;20.54;75.27;94996.84;5010334;28;20180;-75
2022/08/11 00:39:54;;;;;;;8.00;4.05;;;;;;;20.52;75.67;94991.75;5010414;28;20255;-74
2022/08/11 00:42:28;;;;;;;4.07;3.65;;;;;;;20.41;75.94;94989.38;5010223;28;20535;-75
2022/08/11 00:45:09;;;;;;;5.20;3.95;;;;;;;20.37;76.59;94993.66;5010374;28;20171;-75
2022/08/11 00:48:06;;;;;;;4.70;3.50;;;;;;;20.45;75.74;94995.78;5010314;28;20245;-74
2022/08/11 00:50:59;;;;;;;4.28;3.88;;;;;;;20.43;76.01;94993.38;5010345;28;20169;-74
2022/08/11 00:53:42;;;;;;;5.43;4.10;;;;;;;20.43;76.34;94988.00;5010239;28;20180;-74
2022/08/11 00:56:31;;;;;;;9.68;4.38;;;;;;;20.45;75.97;94988.56;5010220;28;20181;-74
2022/08/11 00:59:33;;;;;;;5.40;3.40;;;;;;;20.46;75.67;94992.03;5010059;28;20254;-74
2022/08/11 01:02:16;;;;;;;6.57;4.20;;;;;;;20.48;75.67;94989.91;5010083;28;20179;-74
2022/08/11 01:05:03;;;;;;;4.25;3.65;;;;;;;20.48;75.72;94984.56;5012509;28;20176;-74
2022/08/11 01:07:38;;;;;;;6.15;4.30;;;;;;;20.47;75.55;94986.44;5013604;28;20168;-74
2022/08/11 01:10:29;;;;;;;5.88;4.75;;;;;;;20.45;75.71;94982.41;5013472;28;20175;-74
2022/08/11 01:13:22;;;;;;;6.15;4.80;;;;;;;20.41;75.64;94984.81;4978296;28;20188;-74
2022/08/11 01:16:02;;;;;;;7.28;4.63;;;;;;;20.38;76.03;94979.22;5013491;28;20176;-74
2022/08/11 01:18:43;;;;;;;8.48;4.50;;;;;;;20.37;76.18;94981.06;5013359;28;20168;-74
2022/08/11 01:21:28;;;;;;;6.57;4.75;;;;;;;20.36;76.10;94990.16;5013165;28;20197;-74
2022/08/11 01:24:31;;;;;;;11.48;4.70;;;;;;;20.30;76.32;94988.53;5010851;28;20192;-74
2022/08/11 01:27:11;;;;;;;7.15;4.78;;;;;;;20.27;76.22;94986.41;5007864;28;20611;-74
2022/08/11 01:29:39;;;;;;;5.25;4.35;;;;;;;20.22;76.38;94983.72;5013437;28;20207;-74
2022/08/11 01:32:27;;;;;;;7.18;4.53;;;;;;;20.22;76.60;94989.09;5012997;28;20627;-74
2022/08/11 01:35:13;;;;;;;7.50;4.82;;;;;;;20.19;76.68;94978.91;5012855;28;20231;-74
2022/08/11 01:38:04;;;;;;;5.07;4.57;;;;;;;20.19;76.62;94973.56;5013080;28;20180;-74
2022/08/11 01:40:48;;;;;;;6.57;4.72;;;;;;;20.10;76.84;94969.81;5012853;28;20196;-74
2022/08/11 01:46:25;;;;;;;8.52;4.93;;;;;;;20.02;77.39;94973.03;5013209;28;20792;-74
2022/08/11 01:49:28;;;;;;;11.77;5.03;;;;;;;20.01;77.02;94968.75;5012391;28;20574;-74
2022/08/11 01:52:08;;;;;;;8.73;5.00;;;;;;;20.00;77.54;94975.16;4995183;28;20179;-74
2022/08/11 01:55:01;;;;;;;9.57;4.95;;;;;;;19.83;77.30;94956.69;5028503;28;20184;-74
2022/08/11 01:57:36;;;;;;;9.77;4.45;;;;;;;19.95;77.45;94974.09;5012308;28;20219;-74
2022/08/11 02:00:10;;;;;;;13.40;5.65;;;;;;;19.95;76.99;94975.97;5012633;28;20253;-74
2022/08/11 02:03:00;;;;;;;13.57;5.28;;;;;;;19.92;77.20;94963.94;5012774;28;20179;-74
2022/08/11 02:05:50;;;;;;;8.55;4.53;;;;;;;19.92;77.38;94971.16;5012634;28;20601;-74
2022/08/11 02:08:41;;;;;;;9.77;5.40;;;;;;;19.91;77.62;94967.66;5012469;28;20164;-75
2022/08/11 02:11:29;;;;;;;6.50;4.97;;;;;;;19.72;77.13;94941.75;5012530;28;20157;-75
2022/08/11 02:14:38;;;;;;;9.63;4.63;;;;;;;19.83;77.61;94970.88;5012485;28;20176;-75
2022/08/11 02:17:16;;;;;;;6.75;4.35;;;;;;;19.79;77.75;94969.00;5011853;28;20295;-74
2022/08/11 02:26:15;;;;;;;6.32;4.68;;;;;;;19.71;78.45;94975.69;5012478;28;20175;-74
2022/08/11 02:28:55;;;;;;;9.52;5.00;;;;;;;19.55;78.24;94953.44;5012163;28;20180;-74
2022/08/11 02:34:54;;;;;;;5.85;4.28;;;;;;;19.63;78.49;94978.88;4982348;28;20721;-74
2022/08/11 02:37:33;;;;;;;7.18;4.50;;;;;;;19.65;78.20;94973.25;4992367;28;20169;-74
2022/08/11 02:39:59;;;;;;;7.13;4.70;;;;;;;19.67;77.83;94971.09;4992429;28;20196;-74
2022/08/11 02:42:43;;;;;;;6.95;4.50;;;;;;;19.54;78.57;94961.75;4992236;28;20555;-74
2022/08/11 02:45:11;;;;;;;6.35;4.38;;;;;;;19.44;78.99;94969.69;4992224;28;20224;-74
2022/08/11 02:51:10;;;;;;;9.90;5.10;;;;;;;19.43;79.24;94966.22;5008912;28;20187;-74
2022/08/11 02:53:36;;;;;;;9.63;5.53;;;;;;;19.42;78.82;94961.94;5011742;28;20184;-74
2022/08/11 02:56:21;;;;;;;10.48;4.22;;;;;;;19.44;78.74;94970.50;5011716;28;20230;-74
2022/08/11 03:02:30;;;;;;;7.25;5.28;;;;;;;19.43;78.71;94971.56;4935747;28;20977;-74
2022/08/11 03:05:16;;;;;;;7.72;5.13;;;;;;;19.44;78.59;94973.19;4992012;28;20235;-74
2022/08/11 03:08:14;;;;;;;7.35;5.03;;;;;;;19.42;78.24;94972.63;4992154;28;20173;-74
2022/08/11 03:17:35;;;;;;;10.77;5.38;;;;;;;19.43;77.91;94982.25;5002401;28;20235;-74
2022/08/11 03:20:37;;;;;;;12.55;5.38;;;;;;;19.41;78.12;94978.22;5010639;28;20195;-74
2022/08/11 03:23:21;;;;;;;10.60;5.10;;;;;;;19.40;78.31;94972.09;4992005;28;20668;-74
2022/08/11 03:26:14;;;;;;;9.07;5.60;;;;;;;19.33;78.50;94971.53;5010621;28;20668;-74
2022/08/11 03:28:52;;;;;;;7.38;4.82;;;;;;;19.10;78.61;94940.78;5010559;28;20184;-74
2022/08/11 03:31:48;;;;;;;6.57;5.13;;;;;;;19.22;78.88;94980.56;4993086;28;20206;-74
2022/08/11 03:34:24;;;;;;;11.57;5.15;;;;;;;19.18;79.23;94969.63;5015958;28;20298;-74
2022/08/11 03:37:49;;;;;;;9.18;5.05;;;;;;;19.20;79.45;94972.81;5030645;28;20193;-74
2022/08/11 03:43:25;;;;;;;9.88;5.07;;;;;;;19.21;79.08;94969.06;4956330;28;20646;-74
2022/08/11 03:46:00;;;;;;;11.27;5.15;;;;;;;19.22;79.26;94967.22;4998034;28;20195;-75
2022/08/11 03:48:26;;;;;;;9.43;6.68;;;;;;;19.25;79.19;94977.38;5010856;28;20537;-75
2022/08/11 03:51:12;;;;;;;7.85;5.30;;;;;;;19.21;79.15;94974.41;5010750;28;20174;-75
2022/08/11 03:54:08;;;;;;;10.18;5.45;;;;;;;19.21;79.32;94984.28;5010826;28;20596;-76
2022/08/11 03:56:46;;;;;;;7.72;5.10;;;;;;;19.24;79.57;94981.09;5002993;28;21945;-75
2022/08/11 03:59:41;;;;;;;14.50;5.90;;;;;;;19.29;79.39;94977.63;5007986;28;20676;-75
2022/08/11 04:02:34;;;;;;;6.55;4.80;;;;;;;19.32;79.48;94980.59;5002579;28;20196;-75
2022/08/11 04:05:09;;;;;;;8.75;4.93;;;;;;;19.35;79.30;94989.97;4998491;28;20266;-75
2022/08/11 04:07:46;;;;;;;8.07;5.45;;;;;;;19.41;79.29;94978.22;5010501;28;20187;-75
2022/08/11 04:10:30;;;;;;;10.95;6.30;;;;;;;;;;5013225;28;20172;-75
2022/08/11 04:13:32;;;;;;;13.95;5.13;;;;;;;19.57;79.55;94977.22;4992433;28;20188;-74
2022/08/11 04:15:59;;;;;;;7.72;4.95;;;;;;;19.68;79.04;94983.41;5021003;28;20229;-78
2022/08/11 04:18:43;;;;;;;8.90;5.05;;;;;;;19.81;78.19;94985.56;5016967;28;20227;-78
2022/08/11 04:21:45;;;;;;;6.53;5.18;;;;;;;19.93;77.97;94980.78;5028497;28;20207;-78
2022/08/11 04:24:25;;;;;;;10.00;5.75;;;;;;;20.05;77.13;94986.66;5023335;28;20176;-78
2022/08/11 04:27:03;;;;;;;8.65;5.05;;;;;;;20.24;77.05;94994.94;5018215;28;20652;-78
2022/08/11 04:29:51;;;;;;;12.23;5.70;;;;;;;20.36;76.38;94998.19;5013137;28;20187;-77
2022/08/11 04:32:25;;;;;;;11.35;5.93;;;;;;;20.58;76.15;94989.91;5021126;28;20199;-77
2022/08/11 04:35:01;;;;;;;8.90;5.95;;;;;;;20.74;75.45;94991.47;5014691;28;20219;-77
2022/08/11 04:37:42;;;;;;;9.70;5.25;;;;;;;20.96;74.66;94996.50;5014859;28;20176;-77
2022/08/11 04:40:26;;;;;;;8.70;5.32;;;;;;;21.15;74.46;94991.34;5017406;28;20203;-77
2022/08/11 04:46:09;;;;;;;10.98;6.00;;;;;;;21.54;72.18;95000.31;5030811;28;20730;-77
2022/08/11 05:03:34;;;;;;;10.93;6.05;;;;;;;22.56;68.52;95008.50;5023612;28;20188;-78
2022/08/11 05:06:32;;;;;;;10.20;6.18;;;;;;;22.73;67.76;95000.03;5000569;28;20577;-78
2022/08/11 05:09:19;;;;;;;12.65;6.03;;;;;;;22.97;66.78;95008.16;5023758;28;20176;-79
2022/08/11 05:12:12;;;;;;;10.02;6.13;;;;;;;23.13;66.24;95005.00;5022924;28;20208;-79
2022/08/11 05:35:08;;;;;;;5.65;4.60;;;;;;;24.79;60.48;95011.06;5011479;28;20608;-79
2022/08/11 05:57:21;;;;;;;7.22;4.38;;;;;;;26.20;56.33;95006.66;5013258;28;20168;-76
2022/08/11 05:59:47;;;;;;;5.65;4.28;;;;;;;26.42;56.66;95003.19;5012884;28;20215;-76
2022/08/11 06:02:14;;;;;;;5.53;4.57;;;;;;;26.49;55.54;94987.34;5012924;28;20256;-76
2022/08/11 06:04:39;;;;;;;6.07;4.25;;;;;;;26.74;55.23;95002.09;5012600;28;20176;-76
2022/08/11 06:07:08;;;;;;;7.90;4.78;;;;;;;26.89;54.58;95007.16;5012728;28;20187;-76
2022/08/11 06:09:46;;;;;;;6.15;3.95;;;;;;;26.95;54.54;94997.81;5012747;28;20176;-76
2022/08/11 06:12:19;;;;;;;5.07;3.83;;;;;;;27.12;53.68;94995.19;5012259;28;20685;-76
2022/08/11 06:14:46;;;;;;;6.13;3.83;;;;;;;27.24;53.59;94989.22;5009917;28;20184;-76
2022/08/11 06:17:15;;;;;;;4.97;3.50;;;;;;;27.47;52.71;94995.31;4993113;28;20173;-76
2022/08/11 06:19:47;;;;;;;8.02;4.13;;;;;;;27.64;51.88;94995.41;4992932;28;20180;-76
2022/08/11 06:22:19;;;;;;;4.13;3.58;;;;;;;27.67;52.62;94995.59;4993076;28;20638;-76
2022/08/11 06:24:52;;;;;;;5.72;3.92;;;;;;;27.56;52.00;94963.72;4993306;28;21061;-77
2022/08/11 06:27:23;;;;;;;5.70;3.60;;;;;;;27.84;51.75;94984.00;4991892;28;20185;-77
2022/08/11 06:29:50;;;;;;;6.68;4.25;;;;;;;27.95;51.61;94993.38;4993099;28;20301;-77
2022/08/11 06:32:17;;;;;;;5.63;4.07;;;;;;;28.14;51.13;94987.66;4993043;28;20167;-77
2022/08/11 06:35:00;;;;;;;9.50;4.50;;;;;;;28.28;50.66;94987.56;4992767;28;20244;-77
2022/08/11 06:37:45;;;;;;;7.85;4.10;;;;;;;28.28;50.46;94991.03;4992990;28;20184;-77
2022/08/11 06:40:29;;;;;;;7.45;4.20;;;;;;;28.30;51.68;94988.81;4992896;28;20185;-77
2022/08/11 06:43:17;;;;;;;4.93;4.20;;;;;;;28.45;50.40;94980.19;4992855;28;20181;-77
2022/08/11 06:45:49;;;;;;;5.78;3.65;;;;;;;28.79;49.17;95003.78;4992769;28;20165;-77
2022/08/11 06:48:17;;;;;;;4.10;3.55;;;;;;;28.79;48.64;94992.94;4992720;28;20181;-77
2022/08/11 06:53:34;;;;;;;5.13;3.78;;;;;;;28.70;48.89;94978.56;4992766;28;20253;-77
2022/08/11 07:02:07;;;;;;;7.65;3.72;;;;;;;28.50;48.55;94998.19;4992194;28;20204;-76
2022/08/11 07:04:43;;;;;;;3.50;3.20;;;;;;;28.41;48.51;94986.56;4992699;28;20173;-77
2022/08/11 07:15:40;;;;;;;5.10;3.22;;;;;;;28.05;49.96;95000.41;4991832;28;20721;-77
2022/08/11 07:29:47;;;;;;;5.85;3.50;;;;;;;28.02;51.37;94998.34;4987794;28;20203;-77
2022/08/11 07:32:23;;;;;;;6.20;4.47;;;;;;;28.33;49.45;95003.63;5011986;28;20223;-77
2022/08/11 07:34:54;;;;;;;4.22;3.42;;;;;;;27.74;50.50;94998.63;5011569;28;20307;-77
2022/08/11 07:37:23;;;;;;;5.95;3.90;;;;;;;28.10;51.28;94995.66;5011355;28;20203;-77
2022/08/11 07:39:52;;;;;;;4.10;3.70;;;;;;;28.41;49.38;94992.78;5027819;28;20600;-77
2022/08/11 07:42:22;;;;;;;3.50;3.20;;;;;;;28.26;47.30;94992.50;5031431;28;20207;-77
2022/08/11 07:53:04;;;;;;;6.40;3.03;;;;;;;29.08;45.65;94988.69;5019755;28;20190;-77
2022/08/11 07:55:30;;;;;;;3.70;2.92;;;;;;;29.27;44.53;94964.69;5031091;28;20187;-77
2022/08/11 08:20:08;;;;;;;5.55;3.65;;;;;;;30.09;41.62;94971.44;5025311;28;20211;-77
2022/08/11 08:22:35;;;;;;;10.82;3.60;;;;;;;29.47;44.06;94966.72;5017871;28;20183;-77
2022/08/11 08:25:01;;;;;;;3.28;2.97;;;;;;;29.60;44.75;94970.28;5030038;28;20211;-77
2022/08/11 08:27:27;;;;;;;2.92;2.60;;;;;;;29.94;42.95;94964.66;5022776;28;20184;-80
2022/08/11 08:32:40;;;;;;;5.28;3.25;;;;;;;31.18;39.99;94965.63;4995117;28;20565;-79
2022/08/11 08:35:09;;;;;;;7.30;3.10;;;;;;;31.27;38.38;94949.19;5021465;28;20359;-80
2022/08/11 08:37:34;;;;;;;3.67;2.78;;;;;;;30.95;38.87;94962.50;5019710;28;20649;-80
2022/08/11 08:40:00;;;;;;;3.67;3.28;;;;;;;29.86;41.62;94956.56;5028105;28;20196;-79
2022/08/11 08:42:29;;;;;;;4.53;3.10;;;;;;;29.69;41.03;94964.81;5021261;28;20239;-80
2022/08/11 08:45:10;;;;;;;4.47;2.58;;;;;;;29.59;41.29;94941.56;5019074;28;20243;-77
2022/08/11 08:47:41;;;;;;;5.13;3.40;;;;;;;29.63;43.26;94950.66;5014305;28;20255;-76
2022/08/11 08:50:12;;;;;;;7.93;3.22;;;;;;;29.02;44.05;94943.91;5024748;28;20164;-80
2022/08/11 08:52:44;;;;;;;6.38;3.10;;;;;;;28.82;46.44;94951.63;5026189;28;20179;-77
2022/08/11 08:55:17;;;;;;;3.72;3.30;;;;;;;29.28;45.86;94963.56;5012472;28;20569;-76
2022/08/11 08:57:45;;;;;;;5.40;3.88;;;;;;;29.77;43.07;94958.53;5014374;28;20181;-76
2022/08/11 09:00:14;;;;;;;5.10;2.92;;;;;;;29.51;42.82;94951.34;5014111;28;20211;-76
2022/08/11 09:02:40;;;;;;;4.88;3.05;;;;;;;29.44;43.46;94947.56;5013971;28;20177;-76
2022/08/11 09:05:08;;;;;;;4.10;3.70;;;;;;;29.73;44.13;94949.47;5014301;28;20190;-79
2022/08/11 09:07:34;;;;;;;5.88;3.75;;;;;;;29.93;42.59;94954.91;5021222;28;20202;-77
2022/08/11 09:10:01;;;;;;;3.33;3.00;;;;;;;30.28;40.67;94958.16;5014070;28;20716;-77
2022/08/11 09:12:30;;;;;;;9.98;3.10;;;;;;;30.20;41.06;94948.16;5014100;28;20688;-77
2022/08/11 09:15:02;;;;;;;4.38;3.35;;;;;;;30.03;40.08;94945.59;5026245;28;20699;-77
2022/08/11 09:17:30;;;;;;;3.20;2.90;;;;;;;30.06;42.01;94947.66;5010792;28;20191;-78
2022/08/11 09:20:04;;;;;;;2.83;2.63;;;;;;;30.05;41.58;94943.34;5033818;28;20257;-77
2022/08/11 09:28:11;;;;;;;4.88;2.95;;;;;;;30.27;38.75;94950.38;5022517;28;20688;-77
2022/08/11 09:30:40;;;;;;;23.55;3.72;;;;;;;30.23;38.67;94955.66;5014150;28;20191;-77
2022/08/11 09:33:06;;;;;;;73.68;6.07;;;;;;;30.26;39.50;94936.00;5022602;28;20235;-77
2022/08/11 09:35:37;;;;;;;64.25;8.35;;;;;;;30.42;37.54;94940.81;5029356;28;20608;-78
2022/08/11 09:40:50;;;;;;;66.90;7.25;;;;;;;30.68;39.24;94939.44;5026818;28;20230;-76
2022/08/11 09:46:13;;;;;;;5.35;3.45;;;;;;;30.89;39.67;94939.38;4936621;28;20191;-79
2022/08/11 09:48:42;;;;;;;6.90;3.47;;;;;;;30.91;40.57;94931.66;5020292;28;20187;-78
2022/08/11 09:51:11;;;;;;;48.08;5.03;;;;;;;30.57;39.33;94919.25;5012519;28;20173;-78
2022/08/11 09:53:40;;;;;;;10.75;4.47;;;;;;;30.36;41.50;94929.31;5013288;28;20561;-78
2022/08/11 09:59:01;;;;;;;5.25;3.00;;;;;;;30.50;39.33;94916.25;5018467;28;20587;-79
2022/08/11 10:01:31;;;;;;;93.57;10.68;;;;;;;30.46;38.51;94920.75;5013215;28;20563;-79
2022/08/11 10:04:16;;;;;;;1999.90;999.90;;;;;;;28.52;41.81;94871.34;5000989;28;20171;-78
2022/08/11 10:07:01;;;;;;;1999.90;999.90;;;;;;;28.60;44.54;94900.31;5032129;28;20168;-78
2022/08/11 10:09:33;;;;;;;1999.90;999.90;;;;;;;28.93;43.63;94902.47;5014270;28;20203;-78
2022/08/11 10:12:01;;;;;;;1999.90;999.90;;;;;;;29.35;43.55;94906.09;5017203;28;20712;-78
2022/08/11 10:17:16;;;;;;;1999.90;999.90;;;;;;;29.84;41.69;94905.28;5011453;28;20720;-78
2022/08/11 10:19:45;;;;;;;1999.90;999.90;;;;;;;30.00;42.04;94919.91;5011038;28;20192;-77
2022/08/11 10:27:43;;;;;;;1999.90;999.90;;;;;;;29.86;40.89;94907.69;5011928;28;20259;-78
2022/08/11 10:35:44;;;;;;;1999.90;999.90;;;;;;;29.82;40.75;94910.28;5011492;28;20191;-78
2022/08/11 10:38:14;;;;;;;1999.90;999.90;;;;;;;29.80;40.26;94900.88;5011469;28;20198;-78
2022/08/11 10:40:45;;;;;;;1999.90;999.90;;;;;;;29.99;39.88;94906.66;5011468;28;20685;-78
2022/08/11 10:43:12;;;;;;;372.80;331.02;;;;;;;29.74;38.25;94907.63;5011499;28;20169;-78
2022/08/11 10:48:26;;;;;;;98.65;93.07;;;;;;;29.43;39.63;94900.63;5024334;28;20226;-78
2022/08/11 10:59:14;;;;;;;791.95;724.97;;;;;;;29.59;39.98;94879.94;5030417;28;20198;-78
2022/08/11 11:01:42;;;;;;;1222.90;999.90;;;;;;;29.35;40.96;94855.34;5027770;28;20195;-77
2022/08/11 11:04:16;;;;;;;1716.15;999.90;;;;;;;29.47;41.14;94881.78;5020285;28;20216;-78
2022/08/11 11:06:51;;;;;;;1999.90;999.90;;;;;;;29.55;41.95;94876.31;5032190;28;20172;-78
2022/08/11 11:09:31;;;;;;;1999.90;999.90;;;;;;;29.77;41.25;94875.16;5019056;28;20179;-79
2022/08/11 11:18:03;;;;;;;0.45;0.45;;;;;;;30.02;40.12;94871.47;5022328;28;20433;-79
2022/08/11 11:20:52;;;;;;;629.03;577.90;;;;;;;29.97;38.87;94866.25;5021923;28;20208;-79
2022/08/11 11:23:25;;;;;;;7.30;3.42;;;;;;;29.58;40.41;94872.91;5006625;28;20190;-79
2022/08/11 11:26:31;;;;;;;1999.90;999.90;;;;;;;29.39;41.40;94869.09;5012825;28;20168;-79
2022/08/11 11:29:34;;;;;;;1999.90;999.90;;;;;;;29.23;41.37;94868.84;4975185;28;20278;-79
2022/08/11 11:32:26;;;;;;;1999.90;999.90;;;;;;;29.41;40.54;94864.91;5016700;28;20234;-79
2022/08/11 11:35:10;;;;;;;1999.90;999.90;;;;;;;29.17;41.27;94870.13;5012852;28;20287;-78
2022/08/11 11:37:37;;;;;;;1999.90;999.90;;;;;;;29.05;40.92;94853.78;5012087;28;20188;-77
2022/08/11 11:40:15;;;;;;;1999.90;999.90;;;;;;;29.34;41.38;94870.03;5003713;28;20195;-78
2022/08/11 11:42:44;;;;;;;1999.90;999.90;;;;;;;29.44;40.98;94863.44;5028389;28;20172;-78
2022/08/11 11:45:13;;;;;;;1999.90;999.90;;;;;;;29.57;41.34;94865.13;5012583;28;20279;-78
2022/08/11 11:47:39;;;;;;;1999.90;999.90;;;;;;;29.56;41.05;94858.91;5027322;28;20186;-78
2022/08/11 11:50:06;;;;;;;1999.90;999.90;;;;;;;29.59;40.89;94850.09;5012882;28;20700;-78
2022/08/11 11:52:32;;;;;;;0.70;0.55;;;;;;;29.72;39.85;94839.31;5012566;28;20203;-78
2022/08/11 11:54:59;;;;;;;1227.03;999.90;;;;;;;29.69;39.42;94848.09;5021104;28;20199;-78
2022/08/11 12:02:59;;;;;;;1177.20;999.90;;;;;;;29.86;40.02;94859.59;5031748;28;20195;-78
2022/08/11 12:05:26;;;;;;;892.00;822.42;;;;;;;29.81;39.90;94864.47;5025845;28;20253;-78
2022/08/11 12:08:10;;;;;;;262.55;247.43;;;;;;;29.52;39.69;94844.41;5020840;28;20581;-78
2022/08/11 12:10:36;;;;;;;14.45;13.52;;;;;;;29.45;39.92;94846.06;5012465;28;20645;-78
2022/08/11 12:15:47;;;;;;;58.53;55.47;;;;;;;29.53;40.61;94837.84;5009306;28;20178;-78
2022/08/11 12:18:15;;;;;;;398.75;377.95;;;;;;;29.70;40.64;94839.63;5030170;28;20178;-78
2022/08/11 12:20:43;;;;;;;569.85;537.13;;;;;;;29.84;40.20;94833.94;5028978;28;20695;-77
2022/08/11 12:28:38;;;;;;;4.47;2.70;;;;;;;30.18;39.02;94844.50;5029753;28;20250;-78
2022/08/11 12:31:08;;;;;;;6.03;3.42;;;;;;;30.32;38.81;94844.19;5029649;28;20227;-78
2022/08/11 12:33:35;;;;;;;3.00;2.67;;;;;;;30.27;37.89;94844.41;5029654;28;20222;-78
2022/08/11 12:36:00;;;;;;;3.30;3.00;;;;;;;29.98;40.03;94850.75;5029800;28;20258;-77
2022/08/11 12:38:26;;;;;;;5.35;2.55;;;;;;;29.80;40.20;94835.72;5029612;28;20266;-76
2022/08/11 12:46:31;;;;;;;1999.90;999.90;;;;;;;28.21;42.77;94858.03;5015289;28;20252;-77
2022/08/11 12:51:57;;;;;;;1999.90;999.90;;;;;;;27.02;47.24;94852.22;5010198;28;20179;-77
2022/08/11 12:54:28;;;;;;;1999.90;999.90;;;;;;;26.82;48.39;94852.75;5009677;28;20168;-77
2022/08/11 13:05:14;;;;;;;2.70;1.98;;;;;;;26.15;48.56;94848.28;5019142;28;20578;-78
2022/08/11 13:07:42;;;;;;;4.60;2.55;;;;;;;25.96;49.35;94845.00;5011470;28;20183;-78
2022/08/11 13:10:10;;;;;;;3.80;2.30;;;;;;;26.10;49.72;94844.94;5026318;28;20538;-78
2022/08/11 13:12:48;;;;;;;4.18;2.30;;;;;;;26.20;49.88;94848.19;5025641;28;20179;-78
2022/08/11 13:15:24;;;;;;;3.25;2.38;;;;;;;26.21;49.08;94854.34;5023101;28;20602;-76
2022/08/11 13:17:53;;;;;;;4.90;2.30;;;;;;;26.12;50.01;94850.84;5022580;28;20171;-78
2022/08/11 13:20:22;;;;;;;3.15;2.25;;;;;;;26.04;49.58;94829.97;5014166;28;20207;-78
2022/08/11 13:22:51;;;;;;;6.90;2.80;;;;;;;26.22;50.04;94847.84;5014122;28;20259;-76
2022/08/11 13:25:19;;;;;;;3.90;2.20;;;;;;;26.15;48.21;94839.41;5022439;28;20176;-76
2022/08/11 13:27:46;;;;;;;6.70;2.90;;;;;;;26.02;49.09;94797.09;5030776;28;20172;-76
2022/08/11 13:33:02;;;;;;;3.05;2.42;;;;;;;26.41;47.70;94834.16;5022208;28;20206;-76
2022/08/11 13:35:30;;;;;;;5.82;2.20;;;;;;;26.50;47.94;94835.00;5024649;28;20675;-76
2022/08/11 13:37:57;;;;;;;4.85;2.53;;;;;;;26.54;48.05;94825.97;5025280;28;20260;-76
2022/08/11 13:40:24;;;;;;;3.10;2.47;;;;;;;26.59;47.91;94823.13;5011777;28;20287;-77
2022/08/11 13:42:51;;;;;;;4.22;2.70;;;;;;;26.57;47.59;94829.94;5012982;28;20645;-77
2022/08/11 13:45:18;;;;;;;2.70;2.50;;;;;;;26.52;47.84;94825.50;5012482;28;20256;-76
2022/08/11 13:47:44;;;;;;;2.15;1.95;;;;;;;26.56;46.27;94814.84;5006155;28;20165;-76
2022/08/11 13:50:12;;;;;;;2.65;2.45;;;;;;;26.59;47.31;94825.03;5004583;28;20738;-77
2022/08/11 13:52:39;;;;;;;4.88;2.28;;;;;;;26.52;46.65;94822.00;5011750;28;20622;-77
2022/08/11 13:55:07;;;;;;;5.93;2.50;;;;;;;26.50;46.33;94805.28;5011382;28;20174;-76
2022/08/11 13:57:34;;;;;;;6.13;2.40;;;;;;;26.48;45.55;94807.50;5026397;28;20181;-76
2022/08/11 14:00:09;;;;;;;2.33;1.90;;;;;;;26.58;45.77;94823.44;5013369;28;20251;-76
2022/08/11 14:02:40;;;;;;;4.05;2.35;;;;;;;26.60;44.78;94813.13;5013323;28;20556;-76
2022/08/11 14:05:12;;;;;;;2.50;2.30;;;;;;;26.62;44.06;94803.59;5012917;28;20624;-76
2022/08/11 14:07:40;;;;;;;4.63;2.50;;;;;;;26.72;44.03;94805.22;5009980;28;20251;-76
2022/08/11 14:10:09;;;;;;;2.55;2.17;;;;;;;26.74;43.96;94811.09;5004346;28;20166;-77
2022/08/11 14:15:33;;;;;;;3.72;2.60;;;;;;;26.61;44.46;94807.41;5007903;28;20257;-76
2022/08/11 14:18:12;;;;;;;2.70;2.47;;;;;;;26.77;44.40;94806.97;5004739;28;20248;-75
2022/08/11 14:23:28;;;;;;;2.58;2.30;;;;;;;26.88;43.58;94787.47;5012738;28;20191;-74
2022/08/11 14:28:40;;;;;;;3.72;2.45;;;;;;;27.11;43.86;94806.28;5012323;28;20681;-75
2022/08/11 14:31:07;;;;;;;3.25;2.92;;;;;;;27.13;44.01;94802.16;5012090;28;20708;-75
2022/08/11 14:33:34;;;;;;;3.67;2.45;;;;;;;27.02;44.03;94804.38;5005719;28;20283;-74
2022/08/11 14:36:02;;;;;;;3.10;2.80;;;;;;;26.85;44.17;94811.59;4992616;28;20161;-75
2022/08/11 14:38:28;;;;;;;35.88;4.63;;;;;;;26.50;44.51;94770.19;4992245;28;20677;-75
2022/08/11 14:49:10;;;;;;;4.25;2.63;;;;;;;26.71;47.18;94798.22;4993555;28;20567;-74
2022/08/11 14:51:36;;;;;;;3.55;2.33;;;;;;;26.59;47.52;94798.03;5000252;28;20208;-74
2022/08/11 14:56:47;;;;;;;3.30;3.00;;;;;;;26.65;46.49;94799.47;5011733;28;20814;-75
2022/08/11 14:59:13;;;;;;;3.97;3.10;;;;;;;26.57;47.65;94795.63;5011287;28;20200;-75
2022/08/11 15:04:23;;;;;;;4.43;2.97;;;;;;;26.66;46.44;94790.25;5007148;28;20167;-75
2022/08/11 15:06:50;;;;;;;3.63;2.92;;;;;;;26.76;46.44;94789.16;5011158;28;20192;-75
2022/08/11 15:09:17;;;;;;;2.80;2.60;;;;;;;26.83;46.04;94790.28;5011048;28;20175;-75
2022/08/11 15:17:13;;;;;;;4.20;2.70;;;;;;;27.05;45.62;94775.91;5011101;28;20203;-76
2022/08/11 15:25:15;;;;;;;3.00;2.80;;;;;;;26.73;46.82;94795.19;5003088;28;20236;-76
2022/08/11 15:39:12;;;;;;;6.20;2.40;;;;;;;26.35;46.04;94782.22;5030459;28;20182;-75
2022/08/11 15:47:24;;;;;;;5.43;2.42;;;;;;;26.21;45.92;94789.56;5005478;28;20247;-75
2022/08/11 15:49:54;;;;;;;6.20;2.25;;;;;;;25.98;46.43;94783.44;5000160;28;20645;-75
2022/08/11 15:52:28;;;;;;;4.22;2.53;;;;;;;25.90;46.76;94790.38;5001659;28;20191;-75
2022/08/11 15:54:58;;;;;;;3.22;2.50;;;;;;;25.86;47.21;94783.19;4999515;28;20576;-75
2022/08/11 16:05:42;;;;;;;4.03;2.70;;;;;;;25.80;46.75;94796.03;5010405;28;20191;-75
2022/08/11 16:08:08;;;;;;;3.10;2.58;;;;;;;25.73;47.10;94795.66;5006690;28;20180;-75
2022/08/11 16:10:34;;;;;;;2.33;2.13;;;;;;;25.65;47.40;94779.41;4984626;28;22080;-75
2022/08/11 16:18:55;;;;;;;3.40;2.70;;;;;;;25.71;46.27;94795.16;5010279;28;20205;-75
2022/08/11 16:21:27;;;;;;;5.43;3.80;;;;;;;25.65;46.45;94793.69;5004159;28;20292;-75
2022/08/11 16:23:56;;;;;;;3.72;2.83;;;;;;;25.74;46.16;94791.84;5001241;28;20189;-75
2022/08/11 16:26:23;;;;;;;5.95;2.92;;;;;;;25.74;46.48;94794.56;5002874;28;20188;-75
2022/08/11 16:28:55;;;;;;;5.25;3.42;;;;;;;25.77;46.61;94795.84;4999378;28;20721;-76
2022/08/11 16:31:22;;;;;;;3.95;2.63;;;;;;;25.82;46.37;94788.41;5003402;28;20211;-76
2022/08/11 16:33:50;;;;;;;4.85;2.70;;;;;;;25.83;45.96;94797.31;5007926;28;20220;-77
2022/08/11 16:39:02;;;;;;;4.97;2.85;;;;;;;25.54;46.79;94776.13;5009736;28;20242;-77
2022/08/11 16:47:04;;;;;;;3.10;2.70;;;;;;;25.76;46.63;94816.63;5008446;28;20306;-78
2022/08/11 16:49:45;;;;;;;4.45;2.60;;;;;;;25.66;46.35;94800.69;5009669;28;20637;-78
2022/08/11 16:52:11;;;;;;;3.33;2.90;;;;;;;25.77;45.98;94812.81;5010302;28;20172;-76
2022/08/11 16:54:38;;;;;;;5.88;2.88;;;;;;;25.57;46.00;94802.50;5010880;28;20184;-78
2022/08/11 17:00:05;;;;;;;4.00;3.08;;;;;;;25.38;47.19;94797.28;5012507;28;20264;-80
2022/08/11 17:13:51;;;;;;;3.03;2.70;;;;;;;25.49;46.70;94825.59;5015541;28;20199;-79
2022/08/11 17:16:23;;;;;;;3.95;2.70;;;;;;;25.29;47.08;94825.25;4995659;28;20211;-80